| Date | Time | Temp. (oF) | Dew Point (oF) | Rel. Hum. (%) | Press. (in.) | Wind Dir. | Wind Speed (mph) | Hourly Rainfall (in.) |
|
|---|---|---|---|---|---|---|---|---|---|
| 1 | 05/28 | 00:00 | 63 | 58 | 85 | 29.82 | SSE | 3 | 0.00 |
| 2 | 05/27 | 23:00 | 63 | 60 | 90 | 29.81 | S | 2 | 0.00 |
| 3 | 05/27 | 22:00 | 65 | 61 | 89 | 29.82 | S | 0 | 0.00 |
| 4 | 05/27 | 21:00 | 68 | 63 | 86 | 29.81 | S | 1 | 0.00 |
| 5 | 05/27 | 20:00 | 69 | 62 | 81 | 29.80 | SSW | 1 | 0.00 |
| 6 | 05/27 | 19:00 | 69 | 62 | 81 | 29.77 | SSE | 2 | 0.00 |
| 7 | 05/27 | 18:00 | 68 | 63 | 86 | 29.77 | SSW | 4 | 0.00 |
| 8 | 05/27 | 17:00 | 65 | 64 | 97 | 29.80 | SSW | 2 | 0.15 |
| 9 | 05/27 | 16:00 | 69 | 63 | 83 | 29.77 | S | 7 | 0.01 |
| 10 | 05/27 | 15:00 | 72 | 64 | 77 | 29.79 | SSE | 6 | 0.00 |
| 11 | 05/27 | 14:00 | 68 | 62 | 84 | 29.82 | SSE | 5 | 0.00 |
| 12 | 05/27 | 13:00 | 69 | 61 | 77 | 29.85 | S | 5 | 0.00 |
| 13 | 05/27 | 12:00 | 69 | 61 | 77 | 29.86 | SSE | 3 | 0.00 |
| 14 | 05/27 | 11:00 | 68 | 61 | 80 | 29.88 | SSW | 4 | 0.00 |
| 15 | 05/27 | 10:00 | 65 | 62 | 91 | 29.89 | NE | 1 | 0.00 |
| 16 | 05/27 | 09:00 | 63 | 61 | 95 | 29.90 | NNE | 2 | 0.00 |
| 17 | 05/27 | 08:00 | 61 | 60 | 100 | 29.91 | E | 4 | 0.00 |
| 18 | 05/27 | 07:00 | 59 | 59 | 100 | 29.92 | WSW | 0 | 0.00 |
| 19 | 05/27 | 06:00 | 59 | 59 | 100 | 29.92 | NE | 2 | 0.00 |
| 20 | 05/27 | 05:00 | 59 | 59 | 100 | 29.91 | E | 3 | 0.00 |
| 21 | 05/27 | 04:00 | 59 | 59 | 100 | 29.93 | N | 1 | 0.00 |
| 22 | 05/27 | 03:00 | 59 | 59 | 100 | 29.94 | E | 1 | 0.05 |
| 23 | 05/27 | 02:00 | 59 | 59 | 100 | 29.97 | WNW | 2 | 0.00 |
| 24 | 05/27 | 01:00 | 60 | 59 | 100 | 29.97 | E | 2 | 0.02 |